Terminal Aerodrome Forecast
Issued by NWS

Home | Current Version | Previous Version | Text Only | Print | Product List | Glossary On
Versions: 1 2 3 4 5 6 7 8 9 10 11 12 13
016
FTUS45 KABQ 171120
TAFSAF
TAF
KSAF 171120Z 1712/1812 36006KT P6SM BKN150
     FM171300 01009KT P6SM BKN140
     FM172100 23006KT P6SM SCT090 BKN140
     FM180200 01006KT P6SM SCT080 SCT120=

USA.gov is the U.S. government's official web portal to all federal, state and local government web resources and services.